Flight Track Log - Related Links

Times and Time Zones

All times are in EDT time to prevent confusion due to time zone crossing. See the FLG3862 flight status page for this flight to view local times or setup timezone preferences in your user account.

Time Position Orientation Groundspeed Altitude Reporting Facility
EDT Latitude Longitude Course Direction KTS MPH feet Rate Location/Type
Wed 12:36:00 PM 44.4101 -73.4975 253° West  Level FlightAware Approximate
Wed 12:37:00 PM 44.3857 -73.6116 253° West  Level FlightAware Approximate
Wed 12:37:37 PM 44.4714 -73.4494 254° West 268 308 8,900  Level Boston Center
Wed 12:38:00 PM 44.3630 -73.7262 259° West  Level FlightAware Approximate
Wed 12:38:37 PM 44.4539 -73.5481 256° West 263 303 11,300  Level Boston Center
Wed 12:39:00 PM 44.3463 -73.8428 259° West  Level FlightAware Approximate
Wed 12:39:37 PM 44.4339 -73.6611 256° West 280 322 12,800  Level Boston Center
Wed 12:40:00 PM 44.3286 -73.9591 256° West  Level FlightAware Approximate
Wed 12:40:38 PM 44.4097 -73.7856 255° West 312 359 14,300  Level Boston Center
Wed 12:41:00 PM 44.3074 -74.0743 256° West  Level FlightAware Approximate
Wed 12:41:40 PM 44.3875 -73.9069 256° West 323 372 16,200  Level Boston Center
Wed 12:42:00 PM 44.2862 -74.1894 256° West  Level FlightAware Approximate
Wed 12:42:37 PM 44.3650 -74.0256 255° West 328 377 17,800  Level Boston Center
Wed 12:43:38 PM 44.3403 -74.1469 254° West 323 372 18,700 1,140 Climbing Boston Center
Wed 12:44:38 PM 44.3156 -74.2708 254° West 323 372 20,100 1,750 Climbing Boston Center
Wed 12:45:38 PM 44.2928 -74.3892 255° West 323 372 22,200 1,835 Climbing Boston Center
Wed 12:46:39 PM 44.2700 -74.4956 253° West 311 358 23,800 1,091 Climbing Boston Center
Wed 12:47:39 PM 44.2514 -74.6053 257° West 300 345 24,400 550 Climbing Boston Center
Wed 12:48:39 PM 44.2283 -74.7261 255° West 305 351 24,900 504 Climbing Boston Center
Wed 12:49:38 PM 44.2050 -74.8439 255° West 315 362 25,400 504 Climbing Boston Center
Wed 12:50:38 PM 44.1794 -74.9703 254° West 328 377 25,900 492 Climbing Boston Center
Wed 12:51:40 PM 44.1536 -75.0936 254° West 333 383 26,400 504 Climbing Boston Center
Wed 12:52:37 PM 44.1297 -75.2197 255° West 339 390 26,900 559 Climbing Boston Center
Wed 12:53:38 PM 44.1011 -75.3631 255° West 344 396 27,500 545 Climbing Boston Center
Wed 12:54:38 PM 44.0750 -75.4919 254° West 344 396 28,000 496 Climbing Boston Center
Wed 12:55:39 PM 44.0483 -75.6233 254° West 349 402 28,500 504 Climbing Boston Center
Wed 12:56:37 PM 44.0219 -75.7519 254° West 354 407 29,000 508 Climbing Boston Center
Wed 12:57:37 PM 43.9931 -75.8861 253° West 354 407 29,500 496 Climbing Boston Center
Wed 12:58:38 PM 43.9661 -76.0144 254° West 354 407 30,000 496 Climbing Boston Center
Wed 12:59:38 PM 43.9536 -76.1464 263° West 354 407 30,500 504 Climbing Boston Center
Wed 01:00:37 PM 43.9492 -76.2758 267° West 349 402 31,000 500 Climbing Boston Center
Wed 01:01:38 PM 43.9469 -76.4056 269° West 344 396 31,500 496 Climbing Boston Center
Wed 01:02:38 PM 43.9444 -76.5353 269° West 344 396 32,000 248 Climbing Boston Center
Wed 01:03:39 PM 43.9419 -76.6650 269° West 344 396 32,000  Level Boston Center
Wed 01:04:39 PM 43.9369 -76.7944 267° West 344 396 32,000  Level Boston Center
Wed 01:05:51 PM 43.9167 -76.9167 257° West 350 403 32,000  Level Toronto Center
Wed 01:06:51 PM 43.9000 -77.0667 261° West 350 403 32,000  Level Toronto Center
Wed 01:07:51 PM 43.8833 -77.2000 260° West 350 403 32,000  Level Toronto Center
Wed 01:08:51 PM 43.8667 -77.3500 261° West 360 414 32,000  Level Toronto Center
Wed 01:09:51 PM 43.8667 -77.4833 270° West 360 414 32,000  Level Toronto Center
Wed 01:10:51 PM 43.8333 -77.6167 251° West 360 414 32,000  Level Toronto Center
Wed 01:11:51 PM 43.8167 -77.7333 259° West 360 414 32,000  Level Toronto Center
Wed 01:12:51 PM 43.8000 -77.9000 262° West 360 414 32,000  Level Toronto Center
Wed 01:13:51 PM 43.7667 -78.0167 248° West 370 426 32,000  Level Toronto Center
Wed 01:14:51 PM 43.7500 -78.1833 262° West 370 426 32,000  Level Toronto Center
Wed 01:15:51 PM 43.7333 -78.3000 259° West 370 426 32,000  Level Toronto Center
Wed 01:16:51 PM 43.7000 -78.4333 251° West 370 426 32,000  Level Toronto Center
Wed 01:17:51 PM 43.7000 -78.6000 270° West 370 426 32,000  Level Toronto Center
Wed 01:18:51 PM 43.6667 -78.7167 248° West 370 426 32,000  Level Toronto Center
Wed 01:19:51 PM 43.6167 -78.8500 243° Southwest 390 449 32,000 -200 Level Toronto Center
Wed 01:20:51 PM 43.5667 -78.9833 243° Southwest 390 449 31,600 -650 Descending Toronto Center
Wed 01:21:51 PM 43.5000 -79.1000 232° Southwest 400 460 30,700 -800 Descending Toronto Center
Wed 01:22:51 PM 43.4333 -79.2500 239° Southwest 410 472 30,000 -750 Descending Toronto Center
Wed 01:23:51 PM 43.3833 -79.3833 243° Southwest 410 472 29,200 -900 Descending Toronto Center
Wed 01:24:51 PM 43.3167 -79.5000 232° Southwest 400 460 28,200 -1,000 Descending Toronto Center
Wed 01:25:51 PM 43.2667 -79.6333 243° Southwest 400 460 27,200 -1,000 Descending Toronto Center
Wed 01:26:51 PM 43.2000 -79.7667 236° Southwest 400 460 26,200 -1,000 Descending Toronto Center
Wed 01:27:51 PM 43.1500 -79.9000 243° Southwest 410 472 25,200 -1,000 Descending Toronto Center
Wed 01:28:51 PM 43.0833 -80.0500 239° Southwest 400 460 24,200 -700 Descending Toronto Center
Wed 01:29:51 PM 43.0333 -80.1500 236° Southwest 400 460 23,800 -600 Descending Toronto Center
Wed 01:30:51 PM 42.9667 -80.3000 239° Southwest 390 449 23,000 -400 Descending Toronto Center
Wed 01:31:51 PM 42.9167 -80.4000 236° Southwest 390 449 23,000  Level Toronto Center
Wed 01:32:51 PM 42.8667 -80.5500 246° West 380 437 23,000  Level Toronto Center
Wed 01:33:51 PM 42.8519 -80.6964 262° West 377 434 23,000  Level Cleveland Center
Wed 01:34:50 PM 42.8289 -80.8294 257° West 388 447 23,000  Level Cleveland Center
Wed 01:35:50 PM 42.8033 -80.9736 256° West 397 457 23,000  Level Cleveland Center
Wed 01:36:51 PM 42.7758 -81.1206 256° West 397 457 23,000 -300 Level Cleveland Center
Wed 01:37:50 PM 42.7500 -81.2675 257° West 397 457 22,400 -807 Descending Cleveland Center
Wed 01:38:50 PM 42.7239 -81.4142 256° West 402 463 21,400 -694 Descending Cleveland Center
Wed 01:39:51 PM 42.6978 -81.5578 256° West 396 456 21,000 -200 Descending Cleveland Center
Wed 01:40:50 PM 42.6717 -81.6958 256° West 385 443 21,000  Level Cleveland Center
Wed 01:41:50 PM 42.6408 -81.8419 254° West 380 437 21,000 -99 Level Cleveland Center
Wed 01:42:51 PM 42.6164 -81.9853 257° West 380 437 20,800 -1,240 Descending Cleveland Center
Wed 01:43:51 PM 42.5894 -82.1203 255° West 375 432 18,500 -2,100 Descending Cleveland Center
Wed 01:44:51 PM 42.5647 -82.2519 256° West 375 432 16,600 -2,127 Descending Cleveland Center
Wed 01:45:41 PM 42.5442 -82.3700 257° West 382 440 14,600 -2,218 Descending Cleveland Center
Wed 01:46:50 PM 42.5125 -82.5239 254° West 375 432 12,200 -1,293 Descending Cleveland Center
Wed 01:47:37 PM 42.4861 -82.6161 249° West 347 399 12,100 -56 Descending Cleveland Center
Wed 01:48:38 PM 42.4400 -82.7439 244° Southwest 344 396 12,100  Level Cleveland Center
Wed 01:49:39 PM 42.3958 -82.8606 243° Southwest 346 398 12,100  Level Cleveland Center
Wed 01:50:50 PM 42.3472 -82.9964 244° Southwest 352 405 12,100 -49 Level Cleveland Center
Wed 01:51:42 PM 42.3142 -83.0906 245° Southwest 340 391 12,000 -76 Descending Cleveland Center
Wed 01:52:09 PM 42.2997 -83.1308 244° Southwest 253 291 12,000  Level FAA TRACON SMA TRACON (SMA)
Wed 01:52:29 PM 42.2864 -83.1642 242° Southwest 257 296 12,000 -300 Level FAA TRACON SMA TRACON (SMA)
Wed 01:52:49 PM 42.2706 -83.1825 221° Southwest 245 282 11,800 -900 Descending FAA TRACON SMA TRACON (SMA)
Wed 01:53:09 PM 42.2531 -83.1972 212° Southwest 229 264 11,400 -1,500 Descending FAA TRACON SMA TRACON (SMA)
Wed 01:53:29 PM 42.2311 -83.2167 213° Southwest 247 284 10,800 -1,650 Descending FAA TRACON SMA TRACON (SMA)
Wed 01:53:49 PM 42.2144 -83.2322 215° Southwest 240 276 10,300 -1,500 Descending FAA TRACON SMA TRACON (SMA)
Wed 01:54:09 PM 42.1972 -83.2478 214° Southwest 240 276 9,800 -1,463 Descending FAA TRACON SMA TRACON (SMA)
Wed 01:54:30 PM 42.1764 -83.2669 214° Southwest 236 272 9,300 -1,317 Descending FAA TRACON SMA TRACON (SMA)
Wed 01:54:50 PM 42.1600 -83.2822 215° Southwest 234 269 8,900 -1,350 Descending FAA TRACON SMA TRACON (SMA)
Wed 01:55:10 PM 42.1425 -83.2953 209° Southwest 234 269 8,400 -1,650 Descending FAA TRACON SMA TRACON (SMA)
Wed 01:55:30 PM 42.1206 -83.3106 207° Southwest 231 266 7,800 -1,674 Descending FAA TRACON SMA TRACON (SMA)
Wed 01:55:53 PM 42.1036 -83.3236 210° Southwest 228 262 7,200 -2,000 Descending FAA TRACON SMA TRACON (SMA)
Wed 01:56:12 PM 42.0817 -83.3353 202° Southwest 220 253 6,400 -2,167 Descending FAA TRACON SMA TRACON (SMA)
Wed 01:56:29 PM 42.0681 -83.3411 198° South 221 254 5,900 -2,000 Descending FAA TRACON SMA TRACON (SMA)
Wed 01:56:48 PM 42.0453 -83.3542 203° Southwest 219 252 5,200 -1,275 Descending Cleveland Center
Wed 01:57:49 PM 42.0269 -83.4233 250° West 202 232 4,200 -836 Descending Cleveland Center
Wed 01:58:50 PM 42.0767 -83.4394 346° North 190 219 3,500 -689 Descending Cleveland Center

Login

Don't have an account? Register now (free) for customized features, flight alerts, and more!